createdAt,value
2023-05-08T00:01:34.403Z,9.63
2023-05-08T00:04:02.076Z,12.23
2023-05-08T00:06:29.829Z,10.80
2023-05-08T00:08:57.368Z,15.00
2023-05-08T00:11:24.819Z,14.97
2023-05-08T00:13:52.228Z,17.23
2023-05-08T00:16:19.630Z,12.82
2023-05-08T00:18:47.260Z,13.57
2023-05-08T00:21:14.708Z,12.32
2023-05-08T00:23:42.148Z,13.48
2023-05-08T00:26:09.639Z,10.93
2023-05-08T00:28:37.071Z,13.07
2023-05-08T00:31:04.850Z,15.93
2023-05-08T00:33:32.421Z,13.65
2023-05-08T00:36:04.896Z,8.20
2023-05-08T00:38:34.607Z,12.43
2023-05-08T00:41:02.876Z,19.00
2023-05-08T00:43:30.344Z,14.02
2023-05-08T00:46:01.492Z,14.07
2023-05-08T00:48:34.445Z,5.72
2023-05-08T00:51:05.284Z,13.05
2023-05-08T00:53:37.996Z,14.93
2023-05-08T00:56:07.344Z,7.95
2023-05-08T00:58:34.800Z,9.95
2023-05-08T01:01:02.605Z,10.93
2023-05-08T01:03:31.336Z,8.32
2023-05-08T01:05:59.112Z,7.53
2023-05-08T01:08:26.534Z,10.68
2023-05-08T01:11:23.072Z,10.40
2023-05-08T01:14:50.861Z,9.30
2023-05-08T01:17:28.238Z,8.90
2023-05-08T01:20:27.682Z,6.38
2023-05-08T01:23:33.458Z,14.50
2023-05-08T01:26:58.559Z,10.35
2023-05-08T01:29:53.386Z,15.38
2023-05-08T01:32:43.152Z,8.88
2023-05-08T01:35:29.425Z,7.93
2023-05-08T01:38:13.393Z,5.68
2023-05-08T01:40:53.986Z,12.68
2023-05-08T01:43:50.347Z,11.85
2023-05-08T01:46:24.317Z,6.35
2023-05-08T01:49:16.728Z,8.88
2023-05-08T01:51:49.297Z,14.93
2023-05-08T01:54:24.615Z,11.52
2023-05-08T01:56:56.589Z,8.20
2023-05-08T01:59:27.012Z,10.27
2023-05-08T02:01:57.621Z,11.25
2023-05-08T02:04:27.955Z,9.80
2023-05-08T02:06:57.343Z,11.15
2023-05-08T02:09:27.668Z,9.95
2023-05-08T02:11:55.858Z,9.20
2023-05-08T02:14:25.600Z,10.25
2023-05-08T02:16:55.955Z,8.68
2023-05-08T02:19:26.577Z,10.07
2023-05-08T02:21:56.746Z,7.53
2023-05-08T02:24:25.464Z,8.60
2023-05-08T02:26:54.786Z,8.77
2023-05-08T02:29:24.372Z,9.27
2023-05-08T02:31:54.336Z,10.90
2023-05-08T02:34:24.611Z,10.80
2023-05-08T02:36:54.006Z,8.27
2023-05-08T02:39:25.575Z,12.15
2023-05-08T02:41:53.624Z,10.98
2023-05-08T02:44:22.072Z,12.95
2023-05-08T02:47:14.732Z,14.20
2023-05-08T02:50:09.916Z,14.52
2023-05-08T02:52:49.806Z,20.58
2023-05-08T02:55:23.548Z,17.05
2023-05-08T02:58:12.032Z,14.40
2023-05-08T03:01:01.992Z,19.38
2023-05-08T03:03:39.268Z,20.65
2023-05-08T03:06:14.890Z,12.98
2023-05-08T03:08:43.667Z,19.00
2023-05-08T03:11:18.092Z,14.15
2023-05-08T03:13:48.492Z,20.52
2023-05-08T03:16:22.271Z,12.05
2023-05-08T03:19:09.739Z,13.93
2023-05-08T03:21:40.539Z,13.65
2023-05-08T03:24:09.990Z,20.20
2023-05-08T03:26:38.049Z,11.27
2023-05-08T03:29:06.754Z,12.77
2023-05-08T03:31:36.478Z,10.63
2023-05-08T03:34:05.224Z,14.15
2023-05-08T03:36:32.975Z,11.32
2023-05-08T03:41:28.744Z,10.50
2023-05-08T03:43:57.465Z,13.27
2023-05-08T03:46:26.557Z,13.07
2023-05-08T03:48:55.742Z,12.60
2023-05-08T03:51:23.672Z,8.40
2023-05-08T03:53:52.191Z,14.00
2023-05-08T03:56:19.975Z,13.20
2023-05-08T03:59:01.046Z,14.85
2023-05-08T04:02:12.928Z,11.25
2023-05-08T04:04:44.567Z,10.98
2023-05-08T04:07:27.747Z,12.55
2023-05-08T04:10:03.297Z,14.05
2023-05-08T04:12:53.160Z,9.15
2023-05-08T04:15:26.869Z,12.27
2023-05-08T04:18:00.210Z,10.05
2023-05-08T04:20:30.783Z,15.32
2023-05-08T04:22:59.608Z,12.18
2023-05-08T04:25:29.132Z,13.43
2023-05-08T04:27:58.843Z,8.73
2023-05-08T04:30:27.959Z,12.57
2023-05-08T04:32:58.319Z,9.52
2023-05-08T04:35:26.773Z,8.27
2023-05-08T04:37:55.497Z,11.27
2023-05-08T04:42:51.585Z,12.93
2023-05-08T04:45:20.852Z,9.07
2023-05-08T04:47:48.417Z,10.55
2023-05-08T04:52:44.005Z,7.53
2023-05-08T04:55:11.841Z,14.03
2023-05-08T04:57:39.984Z,8.90
2023-05-08T05:00:09.405Z,6.10
2023-05-08T05:02:40.294Z,5.55
2023-05-08T05:05:08.441Z,7.07
2023-05-08T05:07:36.756Z,9.80
2023-05-08T05:10:04.763Z,9.50
2023-05-08T05:12:35.086Z,6.18
2023-05-08T05:15:03.211Z,4.70
2023-05-08T05:17:35.729Z,11.23
2023-05-08T05:22:33.760Z,2.25
2023-05-08T05:25:04.840Z,2.17
2023-05-08T05:27:37.326Z,3.38
2023-05-08T05:30:07.140Z,2.28
2023-05-08T05:32:34.822Z,2.92
2023-05-08T05:35:02.658Z,2.55
2023-05-08T05:37:33.485Z,1.67
2023-05-08T05:40:01.112Z,8.05
2023-05-08T05:42:32.031Z,3.85
2023-05-08T05:45:00.093Z,4.78
2023-05-08T05:47:27.918Z,7.90
2023-05-08T05:49:55.570Z,14.98
2023-05-08T05:52:22.989Z,5.82
2023-05-08T05:54:50.553Z,2.92
2023-05-08T05:57:18.152Z,3.97
2023-05-08T05:59:45.617Z,3.65
2023-05-08T06:02:18.957Z,5.32
2023-05-08T06:04:47.554Z,2.75
2023-05-08T06:07:15.202Z,2.10
2023-05-08T06:09:42.596Z,3.33
2023-05-08T06:12:12.218Z,3.78
2023-05-08T06:14:39.889Z,1.42
2023-05-08T06:17:07.500Z,4.30
2023-05-08T06:19:35.324Z,7.47
2023-05-08T06:22:03.240Z,2.97
2023-05-08T06:24:30.822Z,5.45
2023-05-08T06:26:58.213Z,4.65
2023-05-08T06:29:25.566Z,5.77
2023-05-08T06:31:52.887Z,4.20
2023-05-08T06:34:20.291Z,3.92
2023-05-08T06:36:47.746Z,2.93
2023-05-08T06:39:15.162Z,1.75
2023-05-08T06:41:42.612Z,6.80
2023-05-08T06:44:10.138Z,3.42
2023-05-08T06:46:37.746Z,4.28
2023-05-08T06:49:05.265Z,5.45
2023-05-08T06:51:33.068Z,9.40
2023-05-08T06:54:01.136Z,5.47
2023-05-08T06:56:28.837Z,5.75
2023-05-08T06:59:07.165Z,3.63
2023-05-08T07:01:37.798Z,2.78
2023-05-08T07:04:06.298Z,5.15
2023-05-08T07:06:34.587Z,2.42
2023-05-08T07:09:02.252Z,5.03
2023-05-08T07:11:29.760Z,3.63
2023-05-08T07:13:57.278Z,5.97
2023-05-08T07:16:24.851Z,3.03
2023-05-08T07:18:52.844Z,1.73
2023-05-08T07:21:21.457Z,5.70
2023-05-08T07:23:51.827Z,1.42
2023-05-08T07:26:19.370Z,7.18
2023-05-08T07:28:46.832Z,5.90
2023-05-08T07:31:14.579Z,1.77
2023-05-08T07:33:42.073Z,4.25
2023-05-08T07:36:09.669Z,1.63
2023-05-08T07:38:37.282Z,1.05
2023-05-08T07:41:05.600Z,4.20
2023-05-08T07:46:00.361Z,3.28
2023-05-08T07:48:27.754Z,8.70
2023-05-08T07:50:55.137Z,5.70
2023-05-08T07:53:22.529Z,3.97
2023-05-08T07:55:49.909Z,10.13
2023-05-08T07:58:17.526Z,3.80
2023-05-08T08:00:46.025Z,3.03
2023-05-08T08:03:13.480Z,3.05
2023-05-08T08:05:42.177Z,3.13
2023-05-08T08:08:09.568Z,4.97
2023-05-08T08:10:37.053Z,13.48
2023-05-08T08:13:04.501Z,4.23
2023-05-08T08:15:32.000Z,4.70
2023-05-08T08:17:59.481Z,5.18
2023-05-08T08:20:26.964Z,3.55
2023-05-08T08:22:54.927Z,2.78
2023-05-08T08:25:22.607Z,2.05
2023-05-08T08:27:49.983Z,6.40
2023-05-08T08:30:18.563Z,2.00
2023-05-08T08:32:46.661Z,1.88
2023-05-08T08:35:15.101Z,1.75
2023-05-08T08:37:43.516Z,1.88
2023-05-08T08:40:11.297Z,1.17
2023-05-08T08:42:38.715Z,6.03
2023-05-08T08:45:07.140Z,10.30
2023-05-08T08:47:38.085Z,4.57
2023-05-08T08:50:08.132Z,2.00
2023-05-08T08:53:07.503Z,6.47
2023-05-08T08:55:40.867Z,9.45
2023-05-08T08:58:27.784Z,3.78
2023-05-08T09:00:56.414Z,17.65
2023-05-08T09:03:24.177Z,15.40
2023-05-08T09:05:52.096Z,25.23
2023-05-08T09:08:19.788Z,6.65
2023-05-08T09:10:47.463Z,5.50
2023-05-08T09:13:16.586Z,0.80
2023-05-08T09:15:44.947Z,8.55
2023-05-08T09:18:12.471Z,3.63
2023-05-08T09:20:41.582Z,3.65
2023-05-08T09:23:09.368Z,9.20
2023-05-08T09:25:45.258Z,2.42
2023-05-08T09:28:21.672Z,1.92
2023-05-08T09:30:59.909Z,2.03
2023-05-08T09:33:29.884Z,2.67
2023-05-08T09:35:57.849Z,1.85
2023-05-08T09:38:40.528Z,5.32
2023-05-08T09:41:16.475Z,1.98
2023-05-08T09:44:00.176Z,2.95
2023-05-08T09:46:28.070Z,1.02
2023-05-08T09:49:01.058Z,3.63
2023-05-08T09:51:31.945Z,5.15
2023-05-08T09:54:00.587Z,5.38
2023-05-08T09:56:34.894Z,2.42
2023-05-08T09:59:04.943Z,5.00
2023-05-08T10:01:34.357Z,18.48
2023-05-08T10:04:03.805Z,7.78
2023-05-08T10:06:31.326Z,2.30
2023-05-08T10:09:13.910Z,3.67
2023-05-08T10:11:52.096Z,3.60
2023-05-08T10:14:20.668Z,1.98
2023-05-08T10:16:51.901Z,7.43
2023-05-08T10:19:22.443Z,7.95
2023-05-08T10:21:52.787Z,3.38
2023-05-08T10:24:41.490Z,6.10
2023-05-08T10:27:24.611Z,3.83
2023-05-08T10:29:56.873Z,1.17
2023-05-08T10:32:26.194Z,2.67
2023-05-08T10:34:56.916Z,1.88
2023-05-08T10:37:24.360Z,4.07
2023-05-08T10:39:54.060Z,2.60
2023-05-08T10:42:22.408Z,3.00
2023-05-08T10:47:45.922Z,3.67
2023-05-08T10:50:47.502Z,3.60
2023-05-08T10:53:41.030Z,2.17
2023-05-08T10:56:09.621Z,1.33
2023-05-08T10:58:39.528Z,2.30
2023-05-08T11:01:10.703Z,2.78
2023-05-08T11:03:47.418Z,2.58
2023-05-08T11:06:15.454Z,7.05
2023-05-08T11:08:49.023Z,1.85
2023-05-08T11:11:33.814Z,29.77
2023-05-08T11:14:07.252Z,4.30
2023-05-08T11:17:02.235Z,4.32
2023-05-08T11:19:30.445Z,9.18
2023-05-08T11:22:22.183Z,10.48
2023-05-08T11:24:55.049Z,4.43
2023-05-08T11:27:51.085Z,6.68
2023-05-08T11:30:35.335Z,8.70
2023-05-08T11:33:06.187Z,7.72
2023-05-08T11:35:49.472Z,15.70
2023-05-08T11:38:36.363Z,6.40
2023-05-08T11:41:07.083Z,11.52
2023-05-08T11:43:34.404Z,9.27
2023-05-08T11:46:18.307Z,10.90
2023-05-08T11:48:45.978Z,17.83
2023-05-08T11:51:16.345Z,14.25
2023-05-08T11:53:44.695Z,10.10
2023-05-08T11:56:12.190Z,10.73
2023-05-08T11:58:39.623Z,2.93
2023-05-08T12:01:07.111Z,5.47
2023-05-08T12:03:34.726Z,3.95
2023-05-08T12:06:02.259Z,12.00
2023-05-08T12:08:29.702Z,3.28
2023-05-08T12:10:58.717Z,7.95
2023-05-08T12:13:30.503Z,3.47
2023-05-08T12:16:01.172Z,5.57
2023-05-08T12:18:30.674Z,4.72
2023-05-08T12:21:00.895Z,4.20
2023-05-08T12:23:30.061Z,3.65
2023-05-08T12:26:01.718Z,5.07
2023-05-08T12:28:32.413Z,5.18
2023-05-08T12:31:00.125Z,6.72
2023-05-08T12:33:28.836Z,2.10
2023-05-08T12:35:57.152Z,2.28
2023-05-08T12:38:28.246Z,2.30
2023-05-08T12:40:56.229Z,1.98
2023-05-08T12:43:37.006Z,4.72
2023-05-08T12:46:05.388Z,8.05
2023-05-08T12:48:32.938Z,5.20
2023-05-08T12:51:05.296Z,4.53
2023-05-08T12:53:33.666Z,4.45
2023-05-08T12:58:34.855Z,6.05
2023-05-08T13:01:13.832Z,5.72
2023-05-08T13:03:42.112Z,6.15
2023-05-08T13:06:23.435Z,2.85
2023-05-08T13:08:55.431Z,8.40
2023-05-08T13:11:34.520Z,3.53
2023-05-08T13:14:02.196Z,5.57
2023-05-08T13:16:29.789Z,8.73
2023-05-08T13:18:57.228Z,4.93
2023-05-08T13:21:27.069Z,4.45
2023-05-08T13:23:57.001Z,2.20
2023-05-08T13:26:25.846Z,5.05
2023-05-08T13:28:56.233Z,5.07
2023-05-08T13:31:24.751Z,9.65
2023-05-08T13:33:52.148Z,5.35
2023-05-08T13:36:20.862Z,2.03
2023-05-08T13:38:48.502Z,3.28
2023-05-08T13:41:15.869Z,2.92
2023-05-08T13:43:43.794Z,5.03
2023-05-08T13:46:11.263Z,4.05
2023-05-08T13:48:38.860Z,2.75
2023-05-08T13:51:06.324Z,8.48
2023-05-08T13:53:33.987Z,3.70
2023-05-08T13:56:01.711Z,9.33
2023-05-08T13:58:29.328Z,1.70
2023-05-08T14:00:56.776Z,3.93
2023-05-08T14:03:24.378Z,3.53
2023-05-08T14:05:51.865Z,3.70
2023-05-08T14:08:19.253Z,2.08
2023-05-08T14:10:47.251Z,7.45
2023-05-08T14:13:14.705Z,2.50
2023-05-08T14:15:42.378Z,5.17
2023-05-08T14:18:09.883Z,4.32
2023-05-08T14:20:37.331Z,7.00
2023-05-08T14:23:04.803Z,4.13
2023-05-08T14:25:32.238Z,34.17
2023-05-08T14:27:59.659Z,2.80
2023-05-08T14:30:27.300Z,4.00
2023-05-08T14:32:54.841Z,4.75
2023-05-08T14:35:22.275Z,5.25
2023-05-08T14:37:50.073Z,7.28
2023-05-08T14:40:17.556Z,3.80
2023-05-08T14:42:45.103Z,4.63
2023-05-08T14:45:13.014Z,5.60
2023-05-08T14:50:08.972Z,9.98
2023-05-08T14:52:36.376Z,5.85
2023-05-08T14:55:04.396Z,5.80
2023-05-08T14:57:32.313Z,5.10
2023-05-08T14:59:59.631Z,5.30
2023-05-08T15:02:27.135Z,5.93
2023-05-08T15:04:54.552Z,12.07
2023-05-08T15:07:22.010Z,3.90
2023-05-08T15:09:49.496Z,5.95
2023-05-08T15:12:16.944Z,8.32
2023-05-08T15:14:44.314Z,2.95
2023-05-08T15:17:11.749Z,17.50
2023-05-08T15:19:39.128Z,5.17
2023-05-08T15:22:06.585Z,6.27
2023-05-08T15:24:34.199Z,4.45
2023-05-08T15:27:01.617Z,5.50
2023-05-08T15:29:29.109Z,14.40
2023-05-08T15:31:56.848Z,9.60
2023-05-08T15:34:26.506Z,12.93
2023-05-08T15:36:56.620Z,2.13
2023-05-08T15:39:24.038Z,4.43
2023-05-08T15:41:51.438Z,4.63
2023-05-08T15:44:22.156Z,8.53
2023-05-08T15:46:50.229Z,6.60
2023-05-08T15:49:17.638Z,5.00
2023-05-08T15:51:45.065Z,4.63
2023-05-08T15:54:12.469Z,4.33
2023-05-08T15:56:39.956Z,4.67
2023-05-08T15:59:07.458Z,4.18
2023-05-08T16:01:34.929Z,4.47
2023-05-08T16:04:02.495Z,10.30
2023-05-08T16:06:30.032Z,5.38
2023-05-08T16:08:57.614Z,13.77
2023-05-08T16:11:25.042Z,9.80
2023-05-08T16:13:52.541Z,4.80
2023-05-08T16:16:20.178Z,5.50
2023-05-08T16:18:47.668Z,7.53
2023-05-08T16:21:15.080Z,12.80
2023-05-08T16:23:42.470Z,10.57
2023-05-08T16:26:09.913Z,15.83
2023-05-08T16:28:37.341Z,8.68
2023-05-08T16:31:06.314Z,15.70
2023-05-08T16:33:33.742Z,10.68
2023-05-08T16:36:01.121Z,11.77
2023-05-08T16:38:28.515Z,13.97
2023-05-08T16:41:05.921Z,10.67
2023-05-08T16:43:33.432Z,13.80
2023-05-08T16:46:01.608Z,6.18
2023-05-08T16:48:30.582Z,7.63
2023-05-08T16:53:27.466Z,16.55
2023-05-08T16:55:55.613Z,10.57
2023-05-08T16:58:23.112Z,22.92
2023-05-08T17:00:50.929Z,17.85
2023-05-08T17:03:18.424Z,18.75
2023-05-08T17:05:45.854Z,12.55
2023-05-08T17:08:13.308Z,11.35
2023-05-08T17:10:41.560Z,11.32
2023-05-08T17:13:09.001Z,7.97
2023-05-08T17:15:36.723Z,10.65
2023-05-08T17:18:04.282Z,9.00
2023-05-08T17:20:31.879Z,13.38
2023-05-08T17:22:59.478Z,13.60
2023-05-08T17:25:26.953Z,13.43
2023-05-08T17:27:57.800Z,14.43
2023-05-08T17:30:26.561Z,14.98
2023-05-08T17:32:55.652Z,14.52
2023-05-08T17:35:24.661Z,18.40
2023-05-08T17:37:52.049Z,11.43
2023-05-08T17:40:19.675Z,16.97
2023-05-08T17:42:47.847Z,12.70
2023-05-08T17:45:15.488Z,12.43
2023-05-08T17:47:42.901Z,13.02
2023-05-08T17:50:11.534Z,24.43
2023-05-08T17:52:39.653Z,20.80
2023-05-08T17:55:08.265Z,15.27
2023-05-08T17:57:35.853Z,21.65
2023-05-08T18:00:04.838Z,8.07
2023-05-08T18:02:36.816Z,11.82
2023-05-08T18:05:06.026Z,7.35
2023-05-08T18:07:33.867Z,12.70
2023-05-08T18:10:01.342Z,12.65
2023-05-08T18:12:33.176Z,14.48
2023-05-08T18:17:29.785Z,11.38
2023-05-08T18:19:57.231Z,16.98
2023-05-08T18:22:24.971Z,14.10
2023-05-08T18:24:54.441Z,12.90
2023-05-08T18:27:21.816Z,13.63
2023-05-08T18:29:50.714Z,9.83
2023-05-08T18:32:19.426Z,12.23
2023-05-08T18:34:47.173Z,22.02
2023-05-08T18:37:14.737Z,44.00
2023-05-08T18:39:42.148Z,22.67
2023-05-08T18:42:09.538Z,17.80
2023-05-08T18:44:37.513Z,17.90
2023-05-08T18:47:05.572Z,30.10
2023-05-08T18:49:33.766Z,16.23
2023-05-08T18:52:01.229Z,16.73
2023-05-08T18:54:30.008Z,16.58
2023-05-08T18:56:57.470Z,13.65
2023-05-08T18:59:26.760Z,12.00
2023-05-08T19:01:54.122Z,16.27
2023-05-08T19:04:21.682Z,15.98
2023-05-08T19:06:49.131Z,15.35
2023-05-08T19:09:16.585Z,18.50
2023-05-08T19:11:43.961Z,11.20
2023-05-08T19:14:11.340Z,21.85
2023-05-08T19:16:38.737Z,13.80
2023-05-08T19:19:06.206Z,13.13
2023-05-08T19:21:35.209Z,22.77
2023-05-08T19:24:02.737Z,12.88
2023-05-08T19:26:30.361Z,14.38
2023-05-08T19:28:57.746Z,19.30
2023-05-08T19:31:25.167Z,15.90
2023-05-08T19:33:52.542Z,14.37
2023-05-08T19:36:19.912Z,14.40
2023-05-08T19:38:49.034Z,10.52
2023-05-08T19:41:18.002Z,20.70
2023-05-08T19:43:45.528Z,13.55
2023-05-08T19:46:12.976Z,9.30
2023-05-08T19:48:40.443Z,15.87
2023-05-08T19:51:09.313Z,11.47
2023-05-08T19:53:36.743Z,11.60
2023-05-08T19:56:04.149Z,15.57
2023-05-08T19:58:32.010Z,14.75
2023-05-08T20:00:59.454Z,18.05
2023-05-08T20:03:27.040Z,9.73
2023-05-08T20:05:54.617Z,14.85
2023-05-08T20:08:22.116Z,13.27
2023-05-08T20:10:49.603Z,15.33
2023-05-08T20:13:17.967Z,14.20
2023-05-08T20:15:45.613Z,16.08
2023-05-08T20:18:13.198Z,16.05
2023-05-08T20:20:40.595Z,21.57
2023-05-08T20:23:08.319Z,16.95
2023-05-08T20:25:35.786Z,17.08
2023-05-08T20:28:03.463Z,26.47
2023-05-08T20:30:31.046Z,24.40
2023-05-08T20:33:04.703Z,14.97
2023-05-08T20:35:33.773Z,21.25
2023-05-08T20:38:01.285Z,21.70
2023-05-08T20:40:28.881Z,19.45
2023-05-08T20:42:56.284Z,14.70
2023-05-08T20:45:23.850Z,26.70
2023-05-08T20:47:51.369Z,21.17
2023-05-08T20:50:18.996Z,24.83
2023-05-08T20:52:46.524Z,24.55
2023-05-08T20:55:14.318Z,28.47
2023-05-08T20:57:42.292Z,26.15
2023-05-08T21:00:10.294Z,20.35
2023-05-08T21:02:40.274Z,21.80
2023-05-08T21:05:08.340Z,21.38
2023-05-08T21:07:36.382Z,20.27
2023-05-08T21:10:04.322Z,20.13
2023-05-08T21:12:32.922Z,20.35
2023-05-08T21:15:00.442Z,25.40
2023-05-08T21:21:20.187Z,27.52
2023-05-08T21:23:47.672Z,25.50
2023-05-08T21:26:15.171Z,29.23
2023-05-08T21:28:42.703Z,25.93
2023-05-08T21:31:10.311Z,21.35
2023-05-08T21:33:38.077Z,20.40
2023-05-08T21:36:05.868Z,24.15
2023-05-08T21:38:33.349Z,18.25
2023-05-08T21:41:08.536Z,25.63
2023-05-08T21:43:37.015Z,30.40
2023-05-08T21:46:06.400Z,30.15
2023-05-08T21:48:34.483Z,26.15
2023-05-08T21:51:02.813Z,23.13
2023-05-08T21:53:30.387Z,21.23
2023-05-08T21:55:57.858Z,20.13
2023-05-08T21:58:25.418Z,27.13
2023-05-08T22:00:52.972Z,22.70
2023-05-08T22:03:20.700Z,37.33
2023-05-08T22:05:48.258Z,33.90
2023-05-08T22:08:15.753Z,24.77
2023-05-08T22:10:44.437Z,26.37
2023-05-08T22:13:13.040Z,30.50
2023-05-08T22:15:40.698Z,27.35
2023-05-08T22:18:08.207Z,28.10
2023-05-08T22:20:35.781Z,21.25
2023-05-08T22:23:03.415Z,27.35
2023-05-08T22:25:30.970Z,27.37
2023-05-08T22:27:58.748Z,27.73
2023-05-08T22:30:26.392Z,26.20
2023-05-08T22:32:57.962Z,26.92
2023-05-08T22:35:29.944Z,26.85
2023-05-08T22:37:58.286Z,28.67
2023-05-08T22:40:26.970Z,29.17
2023-05-08T22:42:56.176Z,28.15
2023-05-08T22:45:24.023Z,22.13
2023-05-08T22:47:52.014Z,19.92
2023-05-08T22:50:19.855Z,30.42
2023-05-08T22:52:47.612Z,25.85
2023-05-08T22:55:16.125Z,20.13
2023-05-08T22:57:44.106Z,21.02
2023-05-08T23:00:12.635Z,24.15
2023-05-08T23:02:40.289Z,23.52
2023-05-08T23:05:08.640Z,27.02
2023-05-08T23:07:36.215Z,27.88
2023-05-08T23:10:03.772Z,25.60
2023-05-08T23:12:32.191Z,27.50
2023-05-08T23:14:59.787Z,32.55
2023-05-08T23:17:27.305Z,22.75
2023-05-08T23:19:54.824Z,27.75
2023-05-08T23:22:22.390Z,37.00
2023-05-08T23:24:49.864Z,20.13
2023-05-08T23:27:17.482Z,25.83
2023-05-08T23:29:44.999Z,22.52
2023-05-08T23:32:14.168Z,21.23
2023-05-08T23:34:45.237Z,24.45
2023-05-08T23:37:13.055Z,27.20
2023-05-08T23:39:41.633Z,25.77
2023-05-08T23:42:09.502Z,20.83
2023-05-08T23:44:37.490Z,37.70
2023-05-08T23:47:05.024Z,20.52
2023-05-08T23:49:32.502Z,15.27
2023-05-08T23:52:00.175Z,19.83
2023-05-08T23:54:27.724Z,26.08
2023-05-08T23:56:55.181Z,21.95
2023-05-08T23:59:22.654Z,17.23
